createdAt,value
2022-11-21T00:00:12.204Z,81.99
2022-11-21T00:01:12.433Z,81.99
2022-11-21T00:02:12.736Z,81.99
2022-11-21T00:03:12.972Z,82.20
2022-11-21T00:04:13.201Z,82.31
2022-11-21T00:05:13.454Z,82.31
2022-11-21T00:06:13.661Z,82.31
2022-11-21T00:07:14.083Z,82.62
2022-11-21T00:08:14.283Z,82.82
2022-11-21T00:09:14.551Z,83.04
2022-11-21T00:10:14.781Z,83.04
2022-11-21T00:11:15.023Z,82.82
2022-11-21T00:12:15.264Z,82.41
2022-11-21T00:13:15.505Z,81.89
2022-11-21T00:14:15.742Z,81.99
2022-11-21T00:15:16.097Z,81.79
2022-11-21T00:16:16.345Z,81.68
2022-11-21T00:17:16.583Z,81.68
2022-11-21T00:18:16.823Z,81.89
2022-11-21T00:19:17.116Z,82.10
2022-11-21T00:20:17.361Z,82.10
2022-11-21T00:21:17.597Z,82.20
2022-11-21T00:22:17.835Z,82.31
2022-11-21T00:23:18.087Z,82.20
2022-11-21T00:24:18.315Z,82.10
2022-11-21T00:25:18.695Z,81.99
2022-11-21T00:26:18.926Z,82.10
2022-11-21T00:27:19.173Z,82.10
2022-11-21T00:28:19.422Z,82.20
2022-11-21T00:29:19.664Z,82.10
2022-11-21T00:30:19.911Z,82.10
2022-11-21T00:31:20.144Z,82.10
2022-11-21T00:32:20.373Z,81.99
2022-11-21T00:33:20.615Z,81.99
2022-11-21T00:34:20.852Z,81.99
2022-11-21T00:35:21.129Z,81.96
2022-11-21T00:36:21.364Z,81.85
2022-11-21T00:37:21.604Z,81.75
2022-11-21T00:38:21.846Z,81.75
2022-11-21T00:39:22.078Z,81.75
2022-11-21T00:40:22.337Z,81.75
2022-11-21T00:41:22.571Z,81.68
2022-11-21T00:42:22.794Z,81.68
2022-11-21T00:43:23.249Z,81.79
2022-11-21T00:44:23.467Z,81.68
2022-11-21T00:45:24.652Z,81.68
2022-11-21T00:46:23.958Z,81.58
2022-11-21T00:47:24.188Z,81.79
2022-11-21T00:48:24.430Z,81.68
2022-11-21T00:49:24.696Z,81.68
2022-11-21T00:50:24.920Z,81.68
2022-11-21T00:51:25.159Z,81.79
2022-11-21T00:52:25.396Z,81.99
2022-11-21T00:53:25.641Z,82.10
2022-11-21T00:54:26.245Z,82.10
2022-11-21T00:55:26.193Z,82.20
2022-11-21T00:56:26.409Z,82.20
2022-11-21T00:57:26.759Z,81.96
2022-11-21T00:58:26.998Z,81.85
2022-11-21T00:59:27.303Z,81.65
2022-11-21T01:00:27.587Z,81.54
2022-11-21T01:01:27.876Z,81.54
2022-11-21T01:02:28.106Z,81.43
2022-11-21T01:03:28.470Z,81.02
2022-11-21T01:04:28.947Z,81.02
2022-11-21T01:05:28.949Z,81.12
2022-11-21T01:06:29.158Z,81.26
2022-11-21T01:07:29.605Z,81.26
2022-11-21T01:08:29.799Z,81.26
2022-11-21T01:09:30.036Z,81.26
2022-11-21T01:10:30.249Z,81.26
2022-11-21T01:11:30.507Z,81.26
2022-11-21T01:12:30.762Z,81.37
2022-11-21T01:13:30.990Z,81.16
2022-11-21T01:14:31.220Z,81.37
2022-11-21T01:15:31.490Z,81.37
2022-11-21T01:16:31.720Z,81.68
2022-11-21T01:17:31.979Z,81.79
2022-11-21T01:18:32.210Z,81.68
2022-11-21T01:19:32.460Z,81.79
2022-11-21T01:20:32.712Z,81.79
2022-11-21T01:21:32.942Z,81.79
2022-11-21T01:22:33.181Z,81.79
2022-11-21T01:23:33.421Z,81.79
2022-11-21T01:24:33.641Z,81.68
2022-11-21T01:25:34.016Z,81.58
2022-11-21T01:26:34.253Z,81.47
2022-11-21T01:27:34.482Z,81.47
2022-11-21T01:28:34.757Z,80.95
2022-11-21T01:29:34.961Z,80.85
2022-11-21T01:30:35.212Z,80.85
2022-11-21T01:31:35.452Z,80.54
2022-11-21T01:32:35.803Z,80.64
2022-11-21T01:33:36.041Z,80.74
2022-11-21T01:34:36.270Z,80.88
2022-11-21T01:35:36.794Z,80.99
2022-11-21T01:36:36.851Z,81.20
2022-11-21T01:37:37.082Z,81.30
2022-11-21T01:38:37.321Z,81.51
2022-11-21T01:39:37.572Z,81.62
2022-11-21T01:40:37.823Z,81.82
2022-11-21T01:41:38.066Z,81.72
2022-11-21T01:42:38.312Z,81.72
2022-11-21T01:43:38.553Z,81.72
2022-11-21T01:44:38.786Z,81.72
2022-11-21T01:45:39.053Z,81.72
2022-11-21T01:46:39.284Z,81.72
2022-11-21T01:47:39.525Z,81.93
2022-11-21T01:48:39.774Z,82.03
2022-11-21T01:49:40.014Z,82.03
2022-11-21T01:50:40.372Z,81.72
2022-11-21T01:51:40.595Z,81.30
2022-11-21T01:52:40.825Z,81.20
2022-11-21T01:53:41.084Z,80.99
2022-11-21T01:54:41.305Z,81.09
2022-11-21T01:55:41.664Z,81.30
2022-11-21T01:56:41.899Z,81.51
2022-11-21T01:57:42.215Z,81.34
2022-11-21T01:58:42.550Z,81.34
2022-11-21T01:59:42.795Z,81.34
2022-11-21T02:00:43.090Z,81.23
2022-11-21T02:01:43.316Z,81.55
2022-11-21T02:02:43.527Z,81.45
2022-11-21T02:03:43.867Z,81.45
2022-11-21T02:04:44.215Z,81.65
2022-11-21T02:05:44.563Z,81.45
2022-11-21T02:06:44.913Z,81.45
2022-11-21T02:07:45.126Z,81.76
2022-11-21T02:08:45.355Z,81.86
2022-11-21T02:09:45.691Z,82.10
2022-11-21T02:10:46.028Z,82.17
2022-11-21T02:11:46.264Z,82.07
2022-11-21T02:12:46.508Z,82.07
2022-11-21T02:13:46.845Z,81.96
2022-11-21T02:14:47.198Z,81.86
2022-11-21T02:15:47.540Z,81.76
2022-11-21T02:16:47.757Z,81.86
2022-11-21T02:17:48.108Z,81.76
2022-11-21T02:18:48.325Z,81.76
2022-11-21T02:19:48.667Z,81.65
2022-11-21T02:20:48.898Z,81.55
2022-11-21T02:21:49.140Z,81.55
2022-11-21T02:22:49.477Z,81.13
2022-11-21T02:23:49.808Z,80.92
2022-11-21T02:24:50.037Z,81.02
2022-11-21T02:25:50.287Z,81.23
2022-11-21T02:26:50.508Z,81.23
2022-11-21T02:27:50.878Z,81.13
2022-11-21T02:28:51.109Z,81.13
2022-11-21T02:29:51.455Z,81.16
2022-11-21T02:30:51.715Z,81.38
2022-11-21T02:31:51.937Z,81.27
2022-11-21T02:32:52.177Z,81.06
2022-11-21T02:33:52.419Z,80.96
2022-11-21T02:34:52.659Z,81.16
2022-11-21T02:35:52.906Z,81.27
2022-11-21T02:36:53.128Z,81.38
2022-11-21T02:37:53.366Z,81.48
2022-11-21T02:38:53.598Z,81.69
2022-11-21T02:39:53.819Z,81.90
2022-11-21T02:40:54.081Z,82.00
2022-11-21T02:41:54.318Z,81.79
2022-11-21T02:42:54.558Z,81.79
2022-11-21T02:43:54.836Z,81.73
2022-11-21T02:44:55.081Z,81.83
2022-11-21T02:45:55.321Z,81.83
2022-11-21T02:46:55.551Z,81.93
2022-11-21T02:48:00.713Z,82.04
2022-11-21T02:48:57.141Z,82.25
2022-11-21T02:49:56.428Z,82.35
2022-11-21T02:50:56.680Z,82.35
2022-11-21T02:51:56.916Z,82.35
2022-11-21T02:52:57.142Z,82.35
2022-11-21T02:53:57.382Z,82.46
2022-11-21T02:54:57.634Z,82.46
2022-11-21T02:55:57.898Z,82.67
2022-11-21T02:56:58.128Z,82.73
2022-11-21T02:58:01.739Z,82.53
2022-11-21T02:58:59.727Z,82.53
2022-11-21T02:59:58.983Z,82.53
2022-11-21T03:00:59.400Z,82.31
2022-11-21T03:01:59.563Z,82.10
2022-11-21T03:02:59.960Z,81.79
2022-11-21T03:04:00.180Z,81.69
2022-11-21T03:05:00.433Z,81.59
2022-11-21T03:06:00.691Z,81.69
2022-11-21T03:07:00.966Z,81.79
2022-11-21T03:08:01.183Z,81.90
2022-11-21T03:09:01.425Z,82.10
2022-11-21T03:10:01.662Z,82.21
2022-11-21T03:11:01.921Z,82.42
2022-11-21T03:12:02.155Z,82.53
2022-11-21T03:13:02.402Z,82.63
2022-11-21T03:14:02.633Z,82.73
2022-11-21T03:15:02.870Z,82.53
2022-11-21T03:16:03.113Z,82.31
2022-11-21T03:17:03.371Z,82.28
2022-11-21T03:18:03.594Z,82.17
2022-11-21T03:19:03.946Z,82.07
2022-11-21T03:20:04.185Z,81.96
2022-11-21T03:21:04.443Z,81.79
2022-11-21T03:22:04.673Z,81.69
2022-11-21T03:23:04.925Z,81.69
2022-11-21T03:24:05.162Z,81.79
2022-11-21T03:25:05.402Z,82.00
2022-11-21T03:26:05.643Z,82.10
2022-11-21T03:27:05.883Z,81.96
2022-11-21T03:28:06.128Z,81.90
2022-11-21T03:29:06.375Z,81.79
2022-11-21T03:30:06.616Z,82.00
2022-11-21T03:31:06.874Z,82.10
2022-11-21T03:32:07.103Z,82.10
2022-11-21T03:33:07.334Z,82.17
2022-11-21T03:34:07.577Z,82.07
2022-11-21T03:35:07.802Z,82.07
2022-11-21T03:36:08.046Z,82.07
2022-11-21T03:37:08.275Z,81.96
2022-11-21T03:38:08.505Z,81.76
2022-11-21T03:39:08.743Z,81.34
2022-11-21T03:40:08.978Z,81.23
2022-11-21T03:41:09.227Z,81.09
2022-11-21T03:42:09.457Z,81.02
2022-11-21T03:43:09.706Z,81.13
2022-11-21T03:44:09.946Z,80.92
2022-11-21T03:45:10.176Z,80.92
2022-11-21T03:46:10.447Z,81.02
2022-11-21T03:47:10.706Z,80.92
2022-11-21T03:48:10.966Z,80.61
2022-11-21T03:49:11.207Z,80.51
2022-11-21T03:50:11.436Z,80.71
2022-11-21T03:51:11.701Z,80.96
2022-11-21T03:52:11.917Z,80.85
2022-11-21T03:53:12.178Z,81.06
2022-11-21T03:54:12.408Z,81.27
2022-11-21T03:55:12.656Z,81.38
2022-11-21T03:56:12.898Z,81.38
2022-11-21T03:57:13.140Z,81.59
2022-11-21T03:58:13.367Z,81.69
2022-11-21T03:59:13.607Z,81.69
2022-11-21T04:00:13.836Z,81.69
2022-11-21T04:01:14.148Z,81.48
2022-11-21T04:02:14.389Z,81.48
2022-11-21T04:03:14.748Z,81.59
2022-11-21T04:04:15.001Z,81.38
2022-11-21T04:05:15.249Z,81.38
2022-11-21T04:06:15.501Z,81.38
2022-11-21T04:07:15.786Z,81.48
2022-11-21T04:08:16.019Z,80.96
2022-11-21T04:09:16.249Z,80.44
2022-11-21T04:10:16.486Z,80.44
2022-11-21T04:11:16.737Z,80.54
2022-11-21T04:12:16.978Z,80.65
2022-11-21T04:13:17.320Z,80.65
2022-11-21T04:14:17.638Z,80.89
2022-11-21T04:15:17.972Z,81.10
2022-11-21T04:16:18.236Z,81.31
2022-11-21T04:17:18.479Z,81.59
2022-11-21T04:18:26.225Z,81.48
2022-11-21T04:19:18.959Z,81.48
2022-11-21T04:20:19.207Z,81.59
2022-11-21T04:21:19.456Z,81.69
2022-11-21T04:22:19.697Z,81.38
2022-11-21T04:23:19.935Z,81.16
2022-11-21T04:24:20.167Z,81.27
2022-11-21T04:25:20.431Z,81.06
2022-11-21T04:26:20.667Z,81.06
2022-11-21T04:27:20.880Z,80.92
2022-11-21T04:28:21.197Z,80.92
2022-11-21T04:29:21.524Z,81.02
2022-11-21T04:30:21.891Z,81.02
2022-11-21T04:31:22.129Z,80.92
2022-11-21T04:32:22.338Z,80.82
2022-11-21T04:33:22.689Z,80.51
2022-11-21T04:34:22.929Z,80.40
2022-11-21T04:35:23.284Z,80.40
2022-11-21T04:36:23.517Z,80.40
2022-11-21T04:37:23.789Z,80.51
2022-11-21T04:38:24.041Z,80.71
2022-11-21T04:39:24.298Z,80.82
2022-11-21T04:40:24.529Z,80.61
2022-11-21T04:41:24.793Z,80.51
2022-11-21T04:42:25.029Z,80.19
2022-11-21T04:43:25.338Z,79.88
2022-11-21T04:44:25.942Z,79.77
2022-11-21T04:45:25.851Z,79.77
2022-11-21T04:46:26.109Z,79.98
2022-11-21T04:47:26.331Z,80.19
2022-11-21T04:48:26.606Z,80.30
2022-11-21T04:49:26.881Z,80.19
2022-11-21T04:50:27.157Z,80.19
2022-11-21T04:51:27.396Z,80.19
2022-11-21T04:52:27.630Z,80.19
2022-11-21T04:53:27.885Z,80.19
2022-11-21T04:54:28.288Z,80.19
2022-11-21T04:55:28.392Z,80.30
2022-11-21T04:56:28.672Z,80.09
2022-11-21T04:57:28.904Z,80.09
2022-11-21T04:58:29.167Z,79.98
2022-11-21T04:59:29.411Z,79.67
2022-11-21T05:00:29.665Z,79.36
2022-11-21T05:01:29.992Z,79.36
2022-11-21T05:02:30.222Z,79.46
2022-11-21T05:03:30.564Z,79.67
2022-11-21T05:04:30.902Z,79.88
2022-11-21T05:05:31.261Z,79.98
2022-11-21T05:06:31.492Z,79.88
2022-11-21T05:07:31.878Z,79.77
2022-11-21T05:08:32.081Z,79.67
2022-11-21T05:09:32.426Z,79.57
2022-11-21T05:10:32.744Z,79.46
2022-11-21T05:11:33.146Z,79.36
2022-11-21T05:12:33.357Z,79.25
2022-11-21T05:13:33.685Z,79.01
2022-11-21T05:14:34.018Z,78.73
2022-11-21T05:15:34.343Z,78.83
2022-11-21T05:16:34.703Z,78.94
2022-11-21T05:17:34.923Z,78.83
2022-11-21T05:18:35.246Z,78.83
2022-11-21T05:19:35.596Z,78.83
2022-11-21T05:20:37.071Z,78.73
2022-11-21T05:21:36.172Z,78.11
2022-11-21T05:22:36.494Z,77.90
2022-11-21T05:23:36.824Z,77.94
2022-11-21T05:24:37.176Z,78.25
2022-11-21T05:25:37.493Z,78.35
2022-11-21T05:26:37.837Z,78.56
2022-11-21T05:27:38.064Z,78.87
2022-11-21T05:28:38.296Z,79.19
2022-11-21T05:29:38.527Z,79.08
2022-11-21T05:30:38.757Z,78.77
2022-11-21T05:31:39.124Z,78.45
2022-11-21T05:32:39.458Z,78.45
2022-11-21T05:33:39.786Z,78.66
2022-11-21T05:34:40.125Z,78.87
2022-11-21T05:35:43.460Z,79.01
2022-11-21T05:36:40.746Z,79.11
2022-11-21T05:37:41.078Z,79.43
2022-11-21T05:38:41.399Z,79.53
2022-11-21T05:39:41.762Z,79.53
2022-11-21T05:40:42.075Z,79.33
2022-11-21T05:41:42.529Z,79.33
2022-11-21T05:42:42.735Z,79.64
2022-11-21T05:43:43.076Z,79.74
2022-11-21T05:44:43.397Z,79.53
2022-11-21T05:45:43.723Z,79.22
2022-11-21T05:46:44.060Z,79.22
2022-11-21T05:47:44.437Z,79.11
2022-11-21T05:48:44.658Z,79.22
2022-11-21T05:49:44.986Z,79.33
2022-11-21T05:50:45.348Z,79.74
2022-11-21T05:51:45.676Z,80.05
2022-11-21T05:52:46.008Z,80.37
2022-11-21T05:53:46.358Z,80.58
2022-11-21T05:54:46.614Z,80.58
2022-11-21T05:55:46.824Z,80.27
2022-11-21T05:56:47.175Z,80.16
2022-11-21T05:57:47.500Z,80.27
2022-11-21T05:58:47.759Z,79.64
2022-11-21T05:59:47.973Z,79.43
2022-11-21T06:00:48.386Z,79.43
2022-11-21T06:01:49.136Z,79.74
2022-11-21T06:02:48.929Z,79.74
2022-11-21T06:03:49.141Z,79.81
2022-11-21T06:04:49.491Z,79.91
2022-11-21T06:05:49.755Z,79.91
2022-11-21T06:06:50.019Z,79.71
2022-11-21T06:07:50.257Z,79.60
2022-11-21T06:08:50.489Z,79.50
2022-11-21T06:09:50.748Z,79.60
2022-11-21T06:10:50.980Z,79.81
2022-11-21T06:11:51.249Z,79.67
2022-11-21T06:12:51.489Z,79.67
2022-11-21T06:13:51.750Z,79.67
2022-11-21T06:14:51.987Z,79.67
2022-11-21T06:15:52.271Z,79.67
2022-11-21T06:16:52.662Z,79.36
2022-11-21T06:17:52.752Z,79.05
2022-11-21T06:18:58.081Z,78.94
2022-11-21T06:19:54.311Z,78.83
2022-11-21T06:20:53.586Z,78.94
2022-11-21T06:21:53.994Z,78.83
2022-11-21T06:22:54.202Z,78.83
2022-11-21T06:23:54.450Z,78.83
2022-11-21T06:24:54.664Z,79.05
2022-11-21T06:25:55.042Z,79.05
2022-11-21T06:26:55.313Z,78.94
2022-11-21T06:27:55.539Z,78.94
2022-11-21T06:28:55.883Z,78.94
2022-11-21T06:29:56.133Z,79.15
2022-11-21T06:30:56.379Z,78.94
2022-11-21T06:31:56.625Z,78.63
2022-11-21T06:32:56.877Z,78.52
2022-11-21T06:33:57.126Z,78.52
2022-11-21T06:34:57.353Z,78.63
2022-11-21T06:35:57.674Z,78.73
2022-11-21T06:36:58.046Z,78.52
2022-11-21T06:37:58.315Z,78.42
2022-11-21T06:38:58.557Z,78.52
2022-11-21T06:39:58.806Z,78.63
2022-11-21T06:40:59.053Z,78.83
2022-11-21T06:41:59.314Z,78.83
2022-11-21T06:42:59.560Z,78.83
2022-11-21T06:43:59.775Z,78.52
2022-11-21T06:45:00.059Z,78.42
2022-11-21T06:46:00.304Z,78.42
2022-11-21T06:47:00.586Z,78.21
2022-11-21T06:48:00.844Z,78.11
2022-11-21T06:49:01.106Z,78.14
2022-11-21T06:50:01.354Z,78.45
2022-11-21T06:51:01.633Z,78.56
2022-11-21T06:52:01.905Z,78.66
2022-11-21T06:53:02.184Z,78.97
2022-11-21T06:54:02.425Z,78.97
2022-11-21T06:55:02.674Z,78.77
2022-11-21T06:56:02.930Z,78.87
2022-11-21T06:57:03.189Z,78.97
2022-11-21T06:58:03.448Z,79.19
2022-11-21T06:59:03.710Z,79.15
2022-11-21T07:00:03.946Z,79.05
2022-11-21T07:01:04.235Z,78.94
2022-11-21T07:02:04.777Z,78.83
2022-11-21T07:03:04.797Z,78.73
2022-11-21T07:04:05.182Z,78.11
2022-11-21T07:05:05.269Z,77.83
2022-11-21T07:06:05.586Z,78.04
2022-11-21T07:07:05.931Z,78.31
2022-11-21T07:09:33.711Z,78.11
2022-11-21T07:10:29.892Z,78.11
2022-11-21T07:11:29.094Z,78.14
2022-11-21T07:12:29.344Z,78.35
2022-11-21T07:13:29.595Z,78.25
2022-11-21T07:14:29.835Z,77.94
2022-11-21T07:15:30.093Z,78.04
2022-11-21T07:16:30.365Z,78.04
2022-11-21T07:17:30.593Z,78.04
2022-11-21T07:18:30.841Z,78.14
2022-11-21T07:19:32.031Z,78.35
2022-11-21T07:24:49.766Z,78.14
2022-11-21T07:25:47.955Z,78.35
2022-11-21T07:26:48.240Z,78.45
2022-11-21T07:27:48.674Z,78.45
2022-11-21T07:28:48.825Z,78.25
2022-11-21T07:29:49.017Z,77.94
2022-11-21T07:30:49.287Z,77.94
2022-11-21T07:31:49.547Z,77.90
2022-11-21T07:32:49.787Z,78.00
2022-11-21T07:33:50.048Z,78.00
2022-11-21T07:34:50.287Z,78.11
2022-11-21T07:35:50.530Z,77.90
2022-11-21T07:36:50.788Z,77.80
2022-11-21T07:37:51.008Z,77.90
2022-11-21T07:38:51.257Z,77.90
2022-11-21T07:39:51.497Z,77.80
2022-11-21T07:40:51.753Z,77.58
2022-11-21T07:41:52.049Z,77.48
2022-11-21T07:42:52.445Z,77.51
2022-11-21T07:43:52.602Z,77.72
2022-11-21T07:44:52.861Z,78.04
2022-11-21T07:45:53.117Z,78.45
2022-11-21T07:46:53.397Z,78.45
2022-11-21T07:47:53.640Z,78.56
2022-11-21T07:48:53.907Z,78.66
2022-11-21T07:49:54.158Z,78.66
2022-11-21T07:50:54.402Z,78.77
2022-11-21T07:51:54.669Z,78.77
2022-11-21T07:52:54.990Z,78.77
2022-11-21T07:53:55.392Z,78.77
2022-11-21T07:54:55.570Z,78.87
2022-11-21T07:55:56.050Z,79.05
2022-11-21T07:56:56.128Z,79.05
2022-11-21T07:57:56.471Z,78.94
2022-11-21T07:58:56.640Z,78.83
2022-11-21T07:59:57.029Z,78.83
2022-11-21T08:00:57.304Z,78.83
2022-11-21T08:01:57.528Z,78.83
2022-11-21T08:02:57.801Z,79.05
2022-11-21T08:03:58.110Z,79.25
2022-11-21T08:04:58.371Z,79.15
2022-11-21T08:05:58.640Z,79.05
2022-11-21T08:06:58.929Z,79.05
2022-11-21T08:07:59.190Z,79.15
2022-11-21T08:08:59.460Z,79.01
2022-11-21T08:09:59.803Z,78.80
2022-11-21T08:11:00.210Z,78.80
2022-11-21T08:12:00.503Z,78.69
2022-11-21T08:13:00.713Z,78.59
2022-11-21T08:14:00.987Z,78.38
2022-11-21T08:15:01.279Z,78.38
2022-11-21T08:16:01.643Z,78.38
2022-11-21T08:17:01.882Z,78.38
2022-11-21T08:18:02.286Z,78.49
2022-11-21T08:19:02.445Z,78.69
2022-11-21T08:20:02.747Z,78.69
2022-11-21T08:21:03.223Z,78.69
2022-11-21T08:22:03.503Z,78.59
2022-11-21T08:23:03.510Z,78.38
2022-11-21T08:24:03.785Z,78.38
2022-11-21T08:25:04.306Z,78.07
2022-11-21T08:26:04.436Z,77.97
2022-11-21T08:27:04.744Z,78.07
2022-11-21T08:28:04.949Z,78.28
2022-11-21T08:29:05.297Z,78.28
2022-11-21T08:30:05.565Z,77.97
2022-11-21T08:31:05.914Z,78.17
2022-11-21T08:32:06.200Z,78.63
2022-11-21T08:33:06.584Z,78.73
2022-11-21T08:34:10.288Z,78.94
2022-11-21T08:35:07.824Z,79.15
2022-11-21T08:36:07.113Z,79.25
2022-11-21T08:37:07.410Z,79.15
2022-11-21T08:38:07.715Z,79.25
2022-11-21T08:39:07.974Z,79.15
2022-11-21T08:40:08.408Z,78.83
2022-11-21T08:41:11.117Z,78.83
2022-11-21T08:42:09.753Z,78.94
2022-11-21T08:43:08.978Z,78.83
2022-11-21T08:44:13.907Z,78.63
2022-11-21T08:45:10.517Z,78.52
2022-11-21T08:46:09.836Z,78.52
2022-11-21T08:47:10.084Z,78.63
2022-11-21T08:48:10.367Z,78.63
2022-11-21T08:49:10.677Z,78.73
2022-11-21T08:50:10.872Z,78.42
2022-11-21T08:51:11.148Z,78.63
2022-11-21T08:52:11.436Z,78.63
2022-11-21T08:53:11.718Z,78.42
2022-11-21T08:54:11.998Z,78.21
2022-11-21T08:55:12.277Z,78.21
2022-11-21T08:56:12.537Z,78.42
2022-11-21T08:57:12.793Z,78.52
2022-11-21T08:58:13.068Z,78.63
2022-11-21T08:59:13.317Z,78.52
2022-11-21T09:00:13.608Z,78.77
2022-11-21T09:01:13.935Z,78.87
2022-11-21T09:02:14.230Z,78.73
2022-11-21T09:03:19.051Z,78.63
2022-11-21T09:04:15.848Z,78.83
2022-11-21T09:05:15.175Z,78.94
2022-11-21T09:06:15.464Z,79.05
2022-11-21T09:07:15.751Z,78.94
2022-11-21T09:08:16.047Z,78.94
2022-11-21T09:09:19.426Z,78.94
2022-11-21T09:10:17.600Z,79.05
2022-11-21T09:11:16.913Z,78.94
2022-11-21T09:12:17.180Z,78.63
2022-11-21T09:13:17.419Z,78.73
2022-11-21T09:14:17.699Z,78.52
2022-11-21T09:15:17.951Z,78.63
2022-11-21T09:16:20.615Z,78.63
2022-11-21T09:17:18.569Z,78.94
2022-11-21T09:18:18.850Z,78.83
2022-11-21T09:19:19.129Z,78.73
2022-11-21T09:20:19.431Z,78.73
2022-11-21T09:21:19.770Z,78.94
2022-11-21T09:22:20.079Z,78.73
2022-11-21T09:23:20.360Z,78.73
2022-11-21T09:24:20.658Z,78.94
2022-11-21T09:25:20.912Z,79.05
2022-11-21T09:26:21.170Z,78.94
2022-11-21T09:27:21.455Z,78.73
2022-11-21T09:28:21.719Z,78.73
2022-11-21T09:29:21.963Z,78.63
2022-11-21T09:30:22.228Z,78.42
2022-11-21T09:31:22.536Z,78.52
2022-11-21T09:32:22.852Z,78.52
2022-11-21T09:33:23.172Z,78.63
2022-11-21T09:34:23.482Z,78.63
2022-11-21T09:35:23.782Z,78.49
2022-11-21T09:36:24.020Z,78.28
2022-11-21T09:37:24.295Z,77.86
2022-11-21T09:38:24.637Z,77.66
2022-11-21T09:39:24.892Z,77.55
2022-11-21T09:40:25.171Z,77.34
2022-11-21T09:41:25.436Z,77.48
2022-11-21T09:42:25.726Z,77.80
2022-11-21T09:43:25.993Z,78.00
2022-11-21T09:44:26.460Z,78.11
2022-11-21T09:45:26.596Z,78.11
2022-11-21T09:46:26.862Z,78.21
2022-11-21T09:47:27.138Z,78.31
2022-11-21T09:48:27.414Z,78.21
2022-11-21T09:49:27.850Z,78.11
2022-11-21T09:50:27.943Z,78.00
2022-11-21T09:51:28.195Z,78.11
2022-11-21T09:52:28.486Z,78.11
2022-11-21T09:53:28.714Z,78.21
2022-11-21T09:54:29.251Z,78.11
2022-11-21T09:55:29.355Z,77.90
2022-11-21T09:56:29.674Z,78.00
2022-11-21T09:57:34.769Z,77.90
2022-11-21T09:58:31.222Z,77.80
2022-11-21T09:59:30.523Z,77.90
2022-11-21T10:00:30.862Z,77.58
2022-11-21T10:01:31.121Z,77.69
2022-11-21T10:02:31.317Z,78.00
2022-11-21T10:03:31.569Z,78.31
2022-11-21T10:04:32.030Z,78.31
2022-11-21T10:05:32.087Z,77.90
2022-11-21T10:06:32.345Z,77.90
2022-11-21T10:07:32.708Z,78.11
2022-11-21T10:08:32.859Z,78.11
2022-11-21T10:09:33.122Z,78.31
2022-11-21T10:10:33.377Z,78.52
2022-11-21T10:11:33.636Z,78.31
2022-11-21T10:12:33.918Z,78.21
2022-11-21T10:13:34.208Z,77.97
2022-11-21T10:14:34.495Z,77.80
2022-11-21T10:15:34.778Z,77.90
2022-11-21T10:16:39.230Z,77.90
2022-11-21T10:17:36.326Z,77.80
2022-11-21T10:18:35.526Z,77.90
2022-11-21T10:19:35.786Z,78.00
2022-11-21T10:20:36.108Z,78.00
2022-11-21T10:21:36.425Z,78.11
2022-11-21T10:22:36.682Z,78.11
2022-11-21T10:23:36.936Z,77.90
2022-11-21T10:24:37.236Z,77.80
2022-11-21T10:25:37.506Z,77.69
2022-11-21T10:26:37.810Z,77.90
2022-11-21T10:27:38.103Z,77.80
2022-11-21T10:28:38.351Z,77.90
2022-11-21T10:29:38.631Z,77.90
2022-11-21T10:30:38.899Z,77.90
2022-11-21T10:31:39.167Z,78.11
2022-11-21T10:32:39.488Z,78.11
2022-11-21T10:33:39.797Z,77.90
2022-11-21T10:34:40.087Z,77.90
2022-11-21T10:35:40.356Z,78.00
2022-11-21T10:36:40.618Z,78.31
2022-11-21T10:37:40.948Z,78.11
2022-11-21T10:38:41.210Z,77.80
2022-11-21T10:39:41.472Z,77.58
2022-11-21T10:40:41.726Z,77.69
2022-11-21T10:41:41.979Z,77.90
2022-11-21T10:42:42.303Z,78.00
2022-11-21T10:43:42.539Z,78.11
2022-11-21T10:44:42.859Z,78.31
2022-11-21T10:45:43.191Z,78.21
2022-11-21T10:46:43.480Z,78.31
2022-11-21T10:47:43.788Z,78.21
2022-11-21T10:48:44.054Z,78.21
2022-11-21T10:49:44.320Z,77.90
2022-11-21T10:50:44.599Z,77.58
2022-11-21T10:51:44.845Z,77.55
2022-11-21T10:52:45.111Z,77.23
2022-11-21T10:53:45.380Z,77.03
2022-11-21T10:54:45.653Z,77.13
2022-11-21T10:55:47.058Z,77.03
2022-11-21T10:56:46.371Z,77.03
2022-11-21T10:57:46.645Z,77.34
2022-11-21T10:58:48.028Z,77.45
2022-11-21T10:59:47.200Z,77.55
2022-11-21T11:00:47.394Z,77.66
2022-11-21T11:01:48.095Z,77.55
2022-11-21T11:02:47.964Z,77.13
2022-11-21T11:04:07.053Z,76.92
2022-11-21T11:04:52.427Z,76.61
2022-11-21T11:05:48.883Z,76.92
2022-11-21T11:06:49.155Z,76.92
2022-11-21T11:07:49.529Z,77.03
2022-11-21T11:08:49.693Z,76.92
2022-11-21T11:09:49.983Z,77.23
2022-11-21T11:10:50.324Z,77.45
2022-11-21T11:11:50.626Z,77.23
2022-11-21T11:12:50.938Z,77.34
2022-11-21T11:13:51.267Z,77.45
2022-11-21T11:14:51.545Z,77.45
2022-11-21T11:15:51.813Z,77.13
2022-11-21T11:16:52.104Z,77.23
2022-11-21T11:17:52.418Z,77.34
2022-11-21T11:18:52.672Z,77.45
2022-11-21T11:19:52.954Z,77.55
2022-11-21T11:20:53.244Z,77.34
2022-11-21T11:21:53.503Z,77.34
2022-11-21T11:22:53.806Z,77.03
2022-11-21T11:23:54.078Z,77.13
2022-11-21T11:24:59.081Z,77.45
2022-11-21T11:25:55.591Z,77.34
2022-11-21T11:26:54.896Z,77.34
2022-11-21T11:27:55.184Z,77.34
2022-11-21T11:28:55.457Z,76.99
2022-11-21T11:29:55.707Z,76.99
2022-11-21T11:30:55.978Z,77.20
2022-11-21T11:31:56.235Z,76.99
2022-11-21T11:32:56.530Z,76.51
2022-11-21T11:33:56.826Z,76.61
2022-11-21T11:34:57.086Z,76.72
2022-11-21T11:35:57.589Z,76.82
2022-11-21T11:36:57.586Z,76.82
2022-11-21T11:37:57.856Z,76.92
2022-11-21T11:38:58.170Z,76.92
2022-11-21T11:39:58.428Z,77.13
2022-11-21T11:40:58.715Z,77.13
2022-11-21T11:41:58.959Z,77.23
2022-11-21T11:42:59.290Z,77.55
2022-11-21T11:43:59.565Z,77.45
2022-11-21T11:44:59.861Z,77.66
2022-11-21T11:46:00.119Z,77.66
2022-11-21T11:47:00.409Z,77.76
2022-11-21T11:48:00.659Z,77.66
2022-11-21T11:49:19.809Z,77.66
2022-11-21T11:50:02.163Z,77.51
2022-11-21T11:51:01.469Z,77.62
2022-11-21T11:52:01.728Z,77.31
2022-11-21T11:53:01.990Z,76.99
2022-11-21T11:54:02.247Z,76.68
2022-11-21T11:55:02.541Z,76.78
2022-11-21T11:56:02.832Z,77.10
2022-11-21T11:57:03.127Z,77.10
2022-11-21T11:58:03.408Z,77.20
2022-11-21T11:59:03.810Z,77.31
2022-11-21T12:00:03.960Z,77.41
2022-11-21T12:01:04.182Z,76.78
2022-11-21T12:02:10.296Z,76.37
2022-11-21T12:03:05.814Z,76.47
2022-11-21T12:04:05.000Z,76.68
2022-11-21T12:05:05.300Z,76.92
2022-11-21T12:06:09.201Z,76.92
2022-11-21T12:08:40.033Z,76.92
2022-11-21T12:09:07.435Z,77.13
2022-11-21T12:10:06.641Z,77.13
2022-11-21T12:11:06.913Z,77.20
2022-11-21T12:12:07.161Z,76.99
2022-11-21T12:13:07.432Z,77.10
2022-11-21T12:14:07.731Z,77.51
2022-11-21T12:15:08.004Z,77.45
2022-11-21T12:16:13.149Z,77.55
2022-11-21T12:17:10.794Z,77.66
2022-11-21T12:18:08.791Z,77.62
2022-11-21T12:19:09.051Z,77.62
2022-11-21T12:20:09.312Z,77.51
2022-11-21T12:21:09.604Z,77.62
2022-11-21T12:22:09.885Z,77.41
2022-11-21T12:23:10.203Z,77.20
2022-11-21T12:24:10.543Z,77.31
2022-11-21T12:25:10.812Z,77.41
2022-11-21T12:26:11.104Z,77.31
2022-11-21T12:27:11.364Z,77.10
2022-11-21T12:28:11.624Z,76.99
2022-11-21T12:29:11.894Z,76.78
2022-11-21T12:30:12.160Z,76.78
2022-11-21T12:31:12.412Z,76.78
2022-11-21T12:32:12.726Z,76.37
2022-11-21T12:33:12.994Z,75.95
2022-11-21T12:34:13.242Z,76.26
2022-11-21T12:35:13.527Z,76.26
2022-11-21T12:36:18.247Z,76.40
2022-11-21T12:37:15.025Z,76.82
2022-11-21T12:38:14.356Z,77.03
2022-11-21T12:39:14.616Z,77.45
2022-11-21T12:40:14.881Z,77.66
2022-11-21T12:41:15.881Z,77.76
2022-11-21T12:42:15.465Z,77.76
2022-11-21T12:43:15.722Z,77.34
2022-11-21T12:44:15.978Z,77.23
2022-11-21T12:45:16.247Z,77.23
2022-11-21T12:46:16.487Z,77.34
2022-11-21T12:47:16.772Z,77.34
2022-11-21T12:48:17.055Z,77.45
2022-11-21T12:49:17.310Z,77.34
2022-11-21T12:50:17.596Z,77.45
2022-11-21T12:51:17.877Z,77.34
2022-11-21T12:52:18.140Z,77.66
2022-11-21T12:53:18.398Z,77.76
2022-11-21T12:54:18.656Z,77.86
2022-11-21T12:55:18.909Z,77.66
2022-11-21T12:56:19.170Z,77.55
2022-11-21T12:57:19.419Z,77.66
2022-11-21T12:58:19.690Z,77.55
2022-11-21T12:59:19.923Z,77.34
2022-11-21T13:00:20.196Z,77.03
2022-11-21T13:01:22.047Z,76.51
2022-11-21T13:02:20.754Z,76.09